Pilot Hill, California
Current Conditions -  °F | °C
As of 7:35 PM on Friday 28 Nov 2014 (Local Time) from KAUN Reporting Station
Broken Clouds Broken Clouds  
Wind Chill: 54°   Ceiling: 9000
Heat Index: 54°   Visibility: 9mi
Dew Point: 45°   Wind: 0mph
Humidity: 72%   Direction: NA
Pressure: 29.87"   Gusts: NA
Location:  38.83°N, 121.02°W
Report Text: KAUN 290335Z AUTO 00000KT 9SM BKN090 12/07 A2987 RMK AO1
Loading
Personal Weather Stations






























Interactive Weather Map New forecast layout! Learn more

10-Day Weather Forecast

Advertisements
Track Severe Weather on mobile